Date,TemperatureHighF,TemperatureAvgF,TemperatureLowF,DewpointHighF,DewpointAvgF,DewpointLowF,HumidityHigh,HumidityAvg,HumidityLow,PressureMaxIn,PressureMinIn,WindSpeedMaxMPH,WindSpeedAvgMPH,GustSpeedMaxMPH,PrecipitationSumIn
2013-1-1,14.3,7.1,-3.1,5.9,0.3,-8.5,80,73,62,29.70,29.55,8,0,8,0.00
2013-1-2,21.3,15.3,11.3,14.9,9.0,-7.3,83,70,41,29.58,29.51,8,0,8,0.00
2013-1-3,20.3,16.0,11.6,15.5,10.9,0.0,84,79,77,29.63,29.46,9,1,12,0.00
2013-1-4,32.1,18.0,9.6,22.4,11.9,5.5,85,77,66,29.67,29.43,10,0,11,0.00
2013-1-5,29.3,17.0,4.4,22.8,11.0,-0.4,85,77,71,29.68,29.39,7,0,7,0.00
2013-1-6,25.7,20.2,11.4,20.5,13.3,0.0,85,72,74,29.72,29.39,4,0,6,0.00
2013-1-7,33.4,22.9,11.1,23.6,16.1,6.7,82,75,66,29.68,29.39,14,4,17,0.00
2013-1-8,40.6,30.2,0.0,29.6,21.3,0.0,86,64,60,29.61,29.34,12,2,16,0.00
2013-1-9,33.6,29.1,18.3,26.8,21.6,11.7,82,73,63,29.94,29.34,12,2,15,0.00
2013-1-10,41.1,27.8,15.4,27.0,17.3,0.0,83,66,43,29.97,29.43,10,0,10,0.12
2013-1-11,39.0,34.6,31.6,36.7,31.7,27.0,92,89,83,29.44,29.07,7,0,7,0.00
2013-1-12,42.4,28.3,13.8,40.5,23.6,7.9,93,82,75,29.51,29.02,17,4,17,0.00
2013-1-13,15.0,12.1,4.4,8.8,3.6,-0.9,78,51,72,29.64,29.44,6,0,15,0.00
2013-1-14,13.6,6.5,0.1,6.3,0.6,-5.7,80,76,71,29.86,29.64,9,2,10,0.00
2013-1-15,25.5,13.6,-0.7,13.5,6.3,-6.4,82,72,41,29.85,29.42,12,3,12,0.00
2013-1-16,25.5,20.3,12.3,20.8,14.0,4.1,84,76,69,29.61,29.14,14,4,14,0.00
2013-1-17,12.2,4.9,-0.5,4.1,-2.7,-7.1,74,70,64,29.81,29.62,8,1,8,0.00
2013-1-18,20.8,16.3,5.3,15.6,11.3,-0.3,82,80,77,29.64,29.29,0,0,0,0.00
2013-1-19,34.3,22.1,2.4,29.4,17.4,-3.7,88,82,72,29.40,29.08,13,2,13,0.02
2013-1-20,6.0,-0.0,-7.4,-1.8,-6.5,-13.8,78,73,67,29.72,29.40,8,1,8,0.00
2013-1-21,-6.8,-11.6,-15.1,0.0,-18.5,-22.8,75,69,64,29.66,29.56,10,1,10,0.00
2013-1-22,2.8,-9.6,-19.3,-7.2,-17.5,-28.9,73,67,61,29.76,29.65,6,1,7,0.00
2013-1-23,7.3,-3.7,-17.5,-0.4,-10.6,-24.4,75,71,67,29.95,29.55,9,1,9,0.00
2013-1-24,6.4,-0.9,-16.7,-2.2,-8.4,-22.8,78,70,64,30.12,29.81,7,0,7,0.00
2013-1-25,14.9,9.3,3.3,9.0,3.7,-2.2,80,78,72,29.81,29.43,6,0,6,0.00
2013-1-26,21.5,11.8,-2.5,14.5,5.8,-7.4,83,77,70,29.86,29.67,6,0,6,0.00
2013-1-27,28.7,20.5,16.8,19.4,13.7,10.0,79,74,66,29.79,29.56,6,1,7,0.00
2013-1-28,32.7,29.7,26.2,27.8,25.7,22.9,88,85,82,29.49,29.36,1,0,6,0.06
2013-1-29,33.4,30.7,28.2,31.1,28.0,24.8,91,90,87,29.36,29.08,6,0,7,0.16
2013-1-30,28.9,19.1,10.2,26.1,15.4,5.9,89,85,82,29.18,28.99,8,1,8,0.00
2013-1-31,11.1,5.9,-1.1,5.9,1.0,-6.0,83,80,76,29.55,29.07,5,0,6,0.00
2013-2-1,1.9,-4.1,-11.3,-5.8,-10.1,-16.2,80,75,69,29.68,29.52,4,0,4,0.00
2013-2-2,10.7,0.0,-12.4,2.2,-6.6,-18.3,77,73,68,29.62,29.44,4,0,6,0.00
2013-2-3,9.1,2.0,-9.7,1.5,-4.5,-16.2,79,74,67,29.52,29.39,5,0,5,0.00
2013-2-4,13.2,-2.2,-18.5,2.0,-9.8,-24.8,78,70,59,29.54,29.37,3,0,6,0.00
2013-2-5,19.2,10.2,-0.5,13.2,4.3,-7.6,82,77,70,29.59,29.21,5,0,6,0.00
2013-2-6,20.8,10.7,-2.7,13.5,5.3,-7.8,83,78,73,29.70,29.58,6,0,6,0.00
2013-2-7,21.3,18.6,16.1,18.3,15.1,0.0,88,86,83,29.77,29.61,9,1,10,0.00
2013-2-8,26.0,12.0,3.0,17.3,6.6,-1.8,85,79,69,29.90,29.77,6,1,6,0.10
2013-2-9,27.5,15.6,5.0,20.6,9.9,-0.1,85,78,69,29.87,29.58,12,1,12,0.00
2013-2-10,19.5,19.5,19.5,15.2,7.6,0.0,83,42,83,29.58,29.58,0,0,0,0.00
2013-2-12,14.1,13.3,12.0,10.4,9.7,8.4,86,85,85,29.34,29.32,0,0,0,0.00
2013-2-13,26.4,16.6,10.9,23.3,13.4,7.3,88,87,85,29.32,29.24,0,0,0,0.00
2013-2-14,27.6,21.1,11.1,23.9,16.6,6.2,88,82,79,29.57,29.25,9,1,9,0.00
2013-2-15,16.8,7.9,-1.8,10.7,2.2,-7.8,84,77,70,29.70,29.54,7,0,7,0.00
2013-2-16,12.0,2.3,-10.8,4.4,-4.0,-16.8,81,74,69,29.68,29.63,6,1,6,0.00
2013-2-17,21.2,2.5,-20.2,10.0,-5.5,-26.1,80,69,60,29.67,29.44,8,1,8,0.00
2013-2-18,34.3,25.8,14.7,25.9,19.0,5.2,86,75,68,29.44,29.04,6,0,7,0.00
2013-2-19,24.9,10.2,0.3,21.3,4.7,-5.5,87,78,70,29.64,29.04,12,2,14,0.00
2013-2-20,17.6,9.3,-0.2,8.9,2.7,-5.9,79,74,67,29.95,29.64,12,2,12,0.00
2013-2-21,24.9,12.3,-6.8,15.9,6.3,-12.6,84,77,67,29.99,29.72,2,0,6,0.00
2013-2-22,22.8,19.3,15.9,18.7,15.6,11.9,87,85,84,29.72,29.35,0,0,0,0.00
2013-2-23,28.9,21.0,12.2,23.6,17.0,8.3,86,84,80,29.44,29.32,0,0,2,0.02
2013-2-24,30.9,24.2,17.4,23.7,18.8,13.9,87,80,72,29.66,29.44,7,0,7,0.04
2013-2-25,31.8,28.4,23.1,25.1,22.4,18.1,82,78,74,29.69,29.62,7,0,7,0.00
2013-2-26,32.3,27.5,13.8,25.4,22.0,9.9,88,80,72,29.61,29.43,11,4,17,0.00
2013-2-27,29.3,27.3,25.5,24.8,22.6,21.2,85,82,80,29.47,29.35,20,5,21,0.00
2013-2-28,27.1,24.6,22.6,22.4,19.5,15.6,86,81,70,29.66,29.47,13,5,13,0.00
2013-3-1,26.2,18.9,6.0,14.5,9.3,-1.4,79,66,55,29.86,29.80,12,4,12,0.00
2013-3-2,26.7,11.5,-4.1,11.9,2.0,-10.3,79,66,51,29.84,29.70,9,1,10,0.00
2013-3-3,30.3,9.6,-12.6,12.9,-1.3,-19.9,77,62,45,29.70,29.60,9,0,9,0.00
2013-3-4,32.1,16.9,-4.3,16.4,5.4,-12.5,76,61,48,29.69,29.61,11,1,11,0.00
2013-3-5,29.1,22.3,19.2,16.4,13.2,7.7,82,68,55,29.73,29.58,10,2,12,0.00
2013-3-6,31.2,22.5,8.2,20.4,15.5,0.9,84,75,61,29.86,29.73,7,0,7,0.00
2013-3-7,32.3,17.4,2.8,19.7,9.4,-3.6,80,71,59,29.95,29.85,6,0,6,0.00
2013-3-8,40.4,24.9,7.5,24.9,15.4,1.2,80,68,53,29.96,29.80,12,1,12,0.00
2013-3-9,32.1,29.2,24.4,28.5,23.7,17.0,88,80,72,29.80,29.37,2,0,2,0.22
2013-3-10,32.3,30.4,25.8,29.4,27.4,22.7,90,88,86,29.50,29.34,14,2,15,0.06
2013-3-11,26.7,24.3,17.7,23.7,20.6,0.0,90,86,81,29.39,29.18,11,1,11,0.00
2013-3-12,23.9,18.7,15.2,17.8,13.9,0.0,86,81,75,29.56,29.26,6,0,7,0.00
2013-3-13,28.9,18.0,7.3,15.4,9.8,-0.1,83,71,56,29.79,29.54,11,1,13,0.12
2013-3-14,34.3,17.7,-3.8,21.9,9.0,-10.0,80,69,53,29.79,29.52,11,1,11,0.00
2013-3-15,30.2,25.7,14.1,23.7,18.3,8.2,82,74,61,29.54,29.46,10,3,10,0.00
2013-3-16,22.8,15.1,7.5,11.8,7.5,2.4,80,72,61,29.67,29.50,8,1,9,0.02
2013-3-17,26.2,12.0,-9.5,8.5,0.8,-16.0,77,62,44,29.80,29.58,7,0,9,0.00
2013-3-18,29.1,20.6,12.2,21.5,14.4,2.8,83,77,63,29.60,29.07,10,0,10,0.00
2013-3-19,24.4,16.7,11.1,14.6,9.0,3.5,82,72,56,29.48,29.08,10,2,17,0.00
2013-3-20,18.5,11.5,1.4,7.3,2.7,-5.2,74,68,60,29.56,29.46,8,1,11,0.00
2013-3-21,26.9,16.6,6.0,15.3,8.4,-1.4,79,70,59,29.59,29.50,10,0,10,0.02
2013-3-22,30.7,17.6,-4.1,21.1,10.0,-10.8,80,72,65,29.64,29.54,7,0,8,0.00
2013-3-23,33.4,25.5,19.5,22.9,17.8,13.8,80,72,63,29.72,29.63,6,0,6,0.00
2013-3-24,29.8,25.0,17.9,21.2,17.7,11.1,77,73,69,29.67,29.50,13,3,14,0.00
2013-3-25,33.6,24.8,16.3,23.6,18.0,10.4,85,75,63,29.71,29.48,13,2,13,0.00
2013-3-26,36.3,28.4,20.8,26.4,20.0,14.9,82,71,56,29.80,29.70,8,1,9,0.00
2013-3-27,40.2,29.9,19.2,22.9,18.0,10.2,78,62,46,29.85,29.79,9,0,9,0.00
2013-3-28,45.8,28.3,11.4,22.1,14.3,4.1,75,57,38,29.88,29.81,6,0,6,0.00
2013-3-29,48.9,31.3,12.9,24.0,16.1,5.5,76,55,36,29.87,29.72,5,0,6,0.00
2013-3-30,35.2,32.2,26.6,32.3,25.7,14.2,89,77,57,29.72,29.35,11,0,11,0.38
2013-3-31,34.3,29.7,19.2,31.2,23.3,12.9,90,78,55,29.48,29.22,15,1,15,0.06
2013-4-1,27.6,20.5,13.8,13.9,10.2,2.8,80,65,46,29.65,29.46,10,1,12,0.02
2013-4-2,32.1,25.4,12.0,15.0,9.4,1.5,73,51,39,29.84,29.65,9,1,9,0.00
2013-4-3,40.1,22.9,3.9,14.5,6.8,-4.9,70,51,33,29.98,29.68,10,2,13,0.00
2013-4-4,46.0,36.1,25.8,29.1,20.5,12.5,61,53,33,29.68,29.53,12,3,12,0.00
2013-4-5,38.3,29.3,17.7,17.7,14.6,9.3,71,55,41,29.81,29.66,8,1,8,0.00
2013-4-6,42.0,33.0,27.1,32.7,25.8,15.8,85,75,51,29.68,29.13,10,0,10,0.30
2013-4-7,41.5,32.9,28.9,31.2,26.8,0.0,88,79,65,29.53,29.14,5,0,6,0.04
2013-4-8,35.4,32.6,31.1,32.8,29.0,25.0,90,87,78,29.61,29.38,4,0,5,0.24
2013-4-9,34.8,32.4,26.9,32.1,27.6,18.8,91,82,66,29.75,29.59,11,2,11,0.00
2013-4-10,39.3,32.0,26.2,24.5,20.0,13.9,76,62,47,29.75,29.62,15,4,15,0.00
2013-4-11,33.0,28.7,24.4,20.0,18.2,13.3,82,65,46,29.64,29.31,26,5,26,0.00
2013-4-12,33.8,27.1,23.5,26.4,21.9,19.6,85,81,73,29.34,29.23,12,3,16,0.08
2013-4-13,33.9,27.7,17.7,25.5,21.2,12.0,84,76,69,29.53,29.29,6,1,8,0.06
2013-4-14,37.2,25.5,11.1,27.2,19.5,6.4,88,78,62,29.59,29.29,8,1,13,0.00
2013-4-15,42.9,35.2,30.3,36.5,28.1,24.3,91,76,55,29.45,29.18,15,3,18,0.24
2013-4-16,42.9,35.6,28.9,29.3,25.5,18.7,79,67,53,29.92,29.42,6,1,9,0.00
2013-4-17,39.7,36.3,28.0,29.0,26.9,19.5,80,69,62,29.94,29.57,9,2,9,0.00
2013-4-18,34.3,32.4,30.9,31.7,29.5,27.1,91,89,79,29.57,28.85,13,2,13,0.40
2013-4-19,31.2,25.7,18.8,29.1,21.9,14.4,92,85,77,29.43,28.73,13,0,13,0.04
2013-4-20,34.8,26.2,16.1,18.9,15.5,11.1,84,65,50,29.93,29.43,8,0,8,0.04
2013-4-21,37.5,29.4,19.2,26.9,20.8,10.7,77,70,65,29.99,29.74,12,1,17,0.02
2013-4-22,38.8,35.6,31.6,35.8,32.5,25.2,91,88,77,29.76,29.62,7,1,8,0.26
2013-4-23,34.8,31.1,23.5,30.7,27.3,18.6,92,86,75,29.63,29.45,10,1,12,0.20
2013-4-24,44.7,32.6,18.3,27.2,22.0,14.6,87,67,49,29.59,29.45,11,1,11,0.00
2013-4-25,45.6,35.6,27.8,31.1,25.6,18.6,85,68,45,29.78,29.45,9,1,9,0.14
2013-4-26,62.7,44.6,27.5,41.4,32.3,18.7,83,63,45,29.78,29.65,12,2,13,0.06
2013-4-27,66.9,50.1,29.4,47.7,37.5,23.7,86,64,43,29.75,29.60,10,1,10,0.00
2013-4-28,68.5,59.2,44.2,45.7,41.6,34.6,73,53,33,29.60,29.38,14,2,22,0.00
2013-4-29,70.8,54.6,42.0,53.3,45.8,35.7,88,73,51,29.44,29.33,8,0,8,0.20
2013-4-30,77.9,62.6,48.0,60.5,50.6,39.9,90,68,43,29.57,29.19,15,2,22,0.20
2013-5-1,49.1,43.4,32.5,42.0,37.2,26.9,87,79,69,29.98,29.52,10,1,12,0.54
2013-5-2,32.7,30.1,27.3,28.0,26.4,8.1,88,86,38,30.01,29.89,12,3,107,0.04
2013-5-3,32.1,29.6,27.1,29.8,26.8,24.0,91,89,88,29.90,29.72,10,3,12,0.02
2013-5-4,63.6,46.0,32.1,51.2,39.8,29.8,93,80,60,29.75,29.67,8,0,8,0.10
2013-5-5,73.5,51.7,34.1,48.5,38.3,29.7,86,64,33,29.75,29.64,6,0,7,0.00
2013-5-6,76.8,54.9,30.2,46.5,37.1,24.2,83,55,29,29.72,29.63,30,0,30,0.00
2013-5-7,76.6,57.6,37.7,46.4,38.3,30.2,79,52,28,29.71,29.61,7,0,7,0.00
2013-5-8,77.5,60.6,43.5,48.2,41.1,32.9,81,51,31,29.67,29.59,6,0,8,0.00
2013-5-9,57.3,46.8,32.9,44.4,37.1,29.5,87,70,49,29.71,29.59,13,2,13,0.30
2013-5-10,63.6,42.9,30.3,36.9,30.2,24.2,87,64,36,29.70,29.50,10,2,11,0.00
2013-5-11,41.1,36.6,30.9,35.0,28.4,0.0,84,73,56,29.57,29.39,15,2,15,0.10
2013-5-12,44.2,35.2,26.4,26.0,22.1,13.6,82,60,43,29.69,29.56,13,2,14,0.02
2013-5-13,55.9,41.3,21.5,30.4,23.5,12.6,72,51,33,29.72,29.43,10,1,12,0.00
2013-5-14,78.6,57.3,39.9,50.2,40.1,28.1,65,53,36,29.43,29.12,10,0,10,0.00
2013-5-15,75.2,61.2,50.5,44.5,41.2,34.1,71,50,30,29.45,29.15,9,1,13,0.00
2013-5-16,69.9,59.3,46.5,42.1,36.7,30.4,67,45,27,29.68,29.45,8,1,9,0.00
2013-5-17,69.0,55.6,45.1,48.5,39.4,30.3,73,55,43,29.75,29.67,7,0,9,0.00
2013-5-18,71.7,58.1,47.3,57.5,49.3,40.7,84,73,61,29.73,29.56,6,0,8,0.04
2013-5-19,81.3,71.8,58.1,62.5,58.9,39.2,82,65,27,29.56,29.39,10,1,10,0.00
2013-5-20,79.8,67.8,56.4,59.9,55.8,48.8,83,67,45,29.41,29.24,10,2,12,0.00
2013-5-21,66.5,59.4,52.8,59.6,54.7,49.2,90,84,73,29.34,29.21,8,1,8,0.40
2013-5-22,52.7,48.5,43.3,49.5,45.6,40.1,92,90,87,29.56,29.32,12,1,12,0.04
2013-5-23,52.5,41.4,32.7,40.1,32.9,24.5,89,73,53,29.93,29.55,15,3,15,0.00
2013-5-24,66.0,46.6,26.9,39.7,32.3,21.5,83,60,37,30.01,29.87,7,0,7,0.00
2013-5-25,70.5,54.0,37.7,43.5,37.6,30.5,77,55,37,29.99,29.88,7,0,7,0.00
2013-5-26,66.9,53.5,34.3,40.3,34.5,26.2,77,50,34,29.94,29.79,7,0,8,0.00
2013-5-27,68.1,55.9,41.9,42.0,36.0,0.0,61,48,27,29.81,29.56,7,0,10,0.00
2013-5-28,54.3,51.9,49.8,48.0,43.4,36.9,86,73,54,29.56,29.37,7,0,8,0.12
2013-5-29,77.1,60.5,50.0,64.0,54.6,40.0,90,82,27,29.52,29.40,9,0,9,0.42
2013-5-30,79.8,65.8,58.8,67.4,60.6,55.3,91,84,61,29.47,29.32,11,1,11,0.26
2013-5-31,77.5,64.7,53.2,61.3,56.7,48.0,91,77,51,29.36,29.27,13,2,13,0.26
2013-6-1,67.2,55.0,40.6,58.7,50.1,36.1,90,84,71,29.42,29.24,8,1,11,0.00
2013-6-2,59.5,44.7,36.6,40.9,36.2,30.1,88,73,47,29.62,29.42,10,2,11,0.02
2013-6-3,64.0,49.5,31.6,42.8,35.3,26.6,84,61,39,29.73,29.61,10,1,14,0.00
2013-6-4,60.6,50.3,40.8,42.5,38.3,30.6,76,64,50,29.80,29.72,4,0,5,0.00
2013-6-5,50.9,46.8,41.7,47.6,42.8,12.7,90,86,27,29.78,29.64,7,0,8,0.28
2013-6-6,52.8,48.4,44.9,48.8,44.2,39.7,92,86,74,29.65,29.61,6,1,8,0.10
2013-6-7,64.0,51.0,40.8,51.2,44.5,36.7,88,79,62,29.65,29.54,4,0,36,0.00
2013-6-8,66.7,56.6,48.2,52.8,48.0,42.3,88,74,55,29.65,29.55,8,1,9,0.00
2013-6-9,67.2,56.9,46.5,55.8,49.5,42.2,85,77,64,29.66,29.53,8,1,9,0.02
2013-6-10,76.1,65.0,52.8,62.3,56.1,48.1,87,74,57,29.54,29.43,6,0,6,0.00
2013-6-11,78.6,65.0,50.7,61.5,54.2,43.8,90,70,48,29.54,29.44,5,0,8,0.00
2013-6-12,79.7,63.9,45.3,58.2,51.3,39.8,85,65,44,29.55,29.42,8,0,9,0.00
2013-6-13,69.6,59.8,51.9,53.3,49.6,44.1,82,70,55,29.74,29.47,13,2,13,0.00
2013-6-14,77.3,61.0,41.1,53.1,46.7,36.3,86,62,41,29.78,29.62,6,0,6,0.00
2013-6-15,64.0,59.5,55.5,60.7,54.3,23.6,92,84,27,29.63,29.43,6,0,7,0.44
2013-6-16,76.1,62.9,51.9,59.6,53.6,24.4,93,74,27,29.57,29.44,11,1,12,0.08
2013-6-17,66.0,57.5,46.9,57.5,51.4,37.6,91,81,68,29.67,29.50,11,2,11,0.02
2013-6-18,75.9,56.3,36.1,49.3,42.1,31.1,85,61,39,29.75,29.67,7,1,9,0.00
2013-6-19,75.3,60.3,40.8,54.2,45.8,34.5,81,60,46,29.75,29.66,9,1,9,0.00
2013-6-20,65.1,63.1,61.3,60.8,59.7,58.3,91,89,85,29.77,0.00,6,1,7,0.26
2013-6-21,68.5,62.6,58.8,64.9,59.4,56.2,93,89,82,29.73,29.42,6,0,8,0.32
2013-6-22,72.6,63.5,58.1,66.1,59.6,55.6,92,87,78,29.70,29.51,11,1,11,0.00
2013-6-23,80.4,70.7,60.9,69.1,63.6,58.3,92,79,64,29.56,29.44,18,2,18,0.00
2013-6-24,82.0,71.1,59.3,67.6,62.9,55.8,90,76,58,29.59,29.47,8,1,10,0.00
2013-6-25,84.0,73.5,63.1,67.7,64.1,58.5,88,74,53,29.51,29.44,7,0,7,0.02
2013-6-26,82.4,69.6,60.4,71.2,63.6,56.7,92,82,65,29.44,29.34,12,1,14,0.74
2013-6-27,76.8,65.4,60.6,67.9,61.9,55.4,93,88,69,29.42,29.33,7,0,7,0.42
2013-6-28,67.1,61.2,56.6,62.3,57.9,54.3,93,89,82,29.37,29.29,6,1,10,0.04
2013-6-29,66.3,58.7,-13.8,58.7,54.2,-16.3,92,85,72,29.56,29.35,10,2,10,0.02
2013-6-30,78.0,62.5,45.1,53.6,48.2,40.8,87,62,41,29.73,29.56,9,0,9,0.00
2013-7-1,76.8,64.1,46.7,57.6,50.5,41.2,85,63,47,29.80,29.73,6,0,8,0.00
2013-7-2,80.4,63.4,48.7,53.0,46.3,37.9,67,55,38,29.80,29.69,1,0,7,0.00
2013-7-3,76.6,63.8,44.9,55.0,49.2,38.1,84,61,42,29.73,29.62,4,0,30,0.00
2013-7-4,79.8,68.0,56.8,60.5,56.3,50.9,85,68,50,29.66,29.59,11,1,11,0.00
2013-7-5,81.6,71.3,56.3,61.2,56.5,50.2,82,61,44,29.65,29.56,14,2,14,0.00
2013-7-6,86.3,72.9,63.6,64.2,59.9,56.0,79,65,45,29.61,29.55,11,2,21,0.00
2013-7-7,82.5,73.1,66.0,68.8,48.3,0.0,88,55,33,29.61,29.53,6,1,10,0.12
2013-7-8,80.9,64.7,-22.0,69.9,52.6,0.0,92,67,48,29.63,29.52,7,0,7,0.20
2013-7-9,77.1,70.0,30.0,69.8,50.4,0.0,92,66,43,29.64,29.37,6,1,6,0.16
2013-7-10,71.7,63.2,52.7,62.4,49.9,0.0,90,68,54,29.65,29.42,30,2,30,0.12
2013-7-11,80.9,64.9,50.7,60.3,53.4,46.5,88,69,46,29.74,29.64,7,0,7,0.00
2013-7-12,81.6,68.2,54.3,61.2,55.7,47.8,80,65,50,29.75,29.67,8,1,11,0.00
2013-7-13,82.5,73.7,60.9,63.2,58.8,52.6,75,60,50,29.81,29.68,8,0,8,0.00
2013-7-14,83.4,70.4,57.3,63.4,54.7,0.0,83,65,51,29.86,29.78,12,0,12,0.00
2013-7-15,85.8,73.5,61.5,69.8,63.3,55.9,89,72,54,29.92,29.86,6,1,8,0.00
2013-7-16,88.3,74.2,0.0,72.7,49.2,0.0,89,54,55,29.88,29.79,8,1,13,0.00
2013-7-17,86.9,82.3,0.0,71.6,25.3,0.0,83,25,54,29.88,29.76,7,0,7,0.00
2013-7-18,87.2,82.8,67.8,73.3,49.2,0.0,92,49,56,29.78,29.40,18,2,19,0.36
2013-7-19,81.3,74.5,58.2,70.4,63.4,49.8,85,69,51,29.46,29.31,14,2,14,0.08
2013-7-20,73.2,62.6,55.2,56.0,50.1,43.6,83,65,45,29.64,29.45,7,1,9,0.00
2013-7-21,68.7,59.3,51.9,55.9,49.7,43.7,80,71,61,29.65,29.54,6,0,8,0.00
2013-7-22,80.6,64.6,51.8,68.3,57.4,47.8,90,78,62,29.55,29.26,17,2,17,0.00
2013-7-23,67.1,58.5,46.9,48.6,46.0,39.2,79,64,49,29.63,29.47,16,2,16,0.00
2013-7-24,68.5,59.3,42.4,53.6,48.7,0.0,86,69,55,29.68,29.62,6,0,6,0.00
2013-7-25,76.8,62.9,48.7,62.9,54.6,44.1,87,75,57,29.63,29.51,9,1,10,0.34
2013-7-26,65.3,56.7,45.1,61.6,53.1,41.8,91,88,81,29.60,29.44,12,1,13,0.24
2013-7-27,54.3,48.2,41.3,47.0,43.5,18.0,91,84,27,29.58,29.44,6,0,57,0.00
2013-7-28,54.1,49.3,44.4,49.9,45.7,40.8,90,87,83,29.61,29.42,10,1,10,0.00
2013-7-29,77.1,58.5,44.4,57.8,49.8,41.4,90,75,51,29.76,29.61,10,1,10,0.00
2013-7-30,67.8,60.4,51.9,60.3,55.1,46.9,91,83,71,29.78,29.68,6,1,9,0.06
2013-7-31,72.8,64.5,53.2,62.4,50.8,0.0,91,71,34,29.68,29.54,57,1,57,0.00
2013-8-1,71.7,61.7,48.7,55.6,43.3,0.0,89,62,52,29.56,29.48,9,0,9,0.00
2013-8-2,70.7,60.4,49.6,56.5,50.5,42.9,88,71,50,29.60,29.43,6,0,7,0.08
2013-8-3,69.9,57.8,44.2,53.9,47.0,39.7,87,69,48,29.79,29.60,9,0,9,0.00
2013-8-4,71.4,56.4,41.3,51.1,44.7,36.5,87,66,47,29.85,29.69,5,0,6,0.00
2013-8-5,64.7,56.5,47.8,61.5,52.2,42.2,91,85,74,29.69,29.46,6,0,6,0.36
2013-8-6,75.3,64.6,58.8,63.2,53.1,0.0,93,74,60,29.48,29.36,7,0,8,0.38
2013-8-7,67.8,60.0,47.4,58.9,52.5,0.0,92,78,53,29.66,29.33,9,1,9,0.57
2013-8-8,58.8,46.6,43.3,53.7,42.4,39.4,88,85,80,29.66,29.62,2,0,2,0.00
2013-8-9,67.8,61.7,50.1,53.5,49.2,43.2,81,64,54,29.69,29.57,7,1,12,0.00
2013-8-10,70.3,57.4,46.0,55.6,49.2,41.6,88,75,59,29.76,29.69,5,0,5,0.00
2013-8-11,74.4,60.2,46.5,57.4,50.8,42.5,88,73,51,29.72,29.62,7,0,7,0.00
2013-8-12,71.4,59.3,44.9,60.4,50.9,0.0,90,75,56,29.68,29.56,10,1,10,0.06
2013-8-13,61.3,51.1,40.1,50.7,42.3,35.7,88,73,56,29.79,29.67,61,1,61,0.00
2013-8-14,67.2,51.1,36.6,50.7,41.5,0.0,88,71,51,29.81,29.72,6,0,8,0.00
2013-8-15,73.5,57.1,41.9,55.4,46.4,36.0,87,69,48,29.74,29.68,8,0,8,0.00
2013-8-16,77.5,61.8,44.9,58.6,50.0,39.8,87,67,43,29.80,29.73,4,0,6,0.00
2013-8-17,77.7,63.9,50.5,60.3,52.2,45.7,87,67,48,29.85,29.75,9,0,9,0.00
2013-8-18,78.0,64.8,50.1,59.4,52.7,44.8,86,66,49,29.80,29.65,12,1,12,0.00
2013-8-19,78.0,66.9,56.4,64.8,57.9,50.0,83,73,63,29.67,29.59,11,2,21,0.00
2013-8-20,83.1,72.4,61.5,68.1,63.5,57.6,87,74,59,29.65,29.56,10,2,10,0.00
2013-8-21,84.0,71.7,58.8,71.9,64.4,55.0,87,78,63,29.66,29.49,9,2,12,0.00
2013-8-22,76.8,65.2,54.3,59.8,53.4,46.8,90,68,46,29.79,29.62,9,1,9,0.00
2013-8-23,78.4,64.2,46.7,59.7,51.8,0.0,84,65,51,29.83,29.73,8,1,8,0.00
2013-8-24,80.2,68.2,54.3,62.9,56.3,49.5,85,67,52,29.84,29.69,12,2,12,0.00
2013-8-25,89.4,78.7,69.6,72.8,68.3,62.4,84,71,55,29.71,29.60,13,4,16,0.00
2013-8-26,83.3,73.9,64.5,74.0,67.3,0.0,91,81,70,29.71,29.57,7,1,10,1.22
2013-8-27,78.4,73.7,66.9,74.1,70.1,63.7,93,89,82,29.57,29.49,5,0,7,0.00
2013-8-28,81.3,70.5,62.7,68.6,64.4,60.0,93,82,60,29.71,29.55,5,0,6,0.00
2013-8-29,80.2,69.4,62.9,70.4,63.9,59.0,92,83,65,29.73,29.50,10,1,10,0.76
2013-8-30,71.2,67.8,64.0,67.5,63.9,0.0,93,88,75,29.57,29.45,8,2,10,0.00
2013-8-31,71.7,66.2,64.2,62.2,59.7,58.7,85,80,72,29.47,29.43,0,0,0,0.00
2013-9-1,69.8,64.4,56.4,62.6,59.2,52.5,92,84,73,29.51,29.34,8,1,8,0.16
2013-9-2,58.6,52.3,44.2,52.5,47.3,40.1,88,83,74,29.63,29.51,7,0,7,0.00
2013-9-3,71.2,55.7,40.4,55.7,48.1,37.1,91,77,56,29.67,29.57,4,0,6,0.00
2013-9-4,68.3,58.2,47.1,57.1,51.2,41.4,90,78,59,29.80,29.57,6,0,6,0.00
2013-9-5,71.4,55.0,39.9,53.1,45.7,36.1,89,73,51,29.91,29.80,5,0,5,0.00
2013-9-6,77.7,63.4,49.2,68.0,57.0,44.5,86,80,72,29.81,29.55,6,0,6,0.00
2013-9-7,80.7,68.4,55.7,71.0,61.9,49.6,90,80,66,29.75,29.52,12,1,13,0.00
2013-9-8,69.9,59.6,50.3,55.0,50.1,45.7,85,72,57,29.76,29.60,6,0,8,0.00
2013-9-9,76.2,63.8,55.2,70.6,59.7,48.5,91,87,78,29.60,29.33,10,0,10,0.10
2013-9-10,78.2,68.3,59.5,68.8,63.9,56.5,93,86,67,29.57,29.35,8,0,8,0.06
2013-9-11,77.1,63.6,52.7,65.0,57.3,47.5,93,81,61,29.62,29.56,11,0,11,0.00
2013-9-12,59.3,53.4,44.9,53.9,46.9,39.5,90,79,65,29.79,29.59,8,0,10,0.00
2013-9-13,60.8,49.3,40.1,46.8,41.0,36.0,85,74,58,29.84,29.71,8,0,8,0.00
2013-9-14,66.3,52.5,39.3,50.6,44.1,35.0,86,74,57,29.71,29.56,10,1,11,0.04
2013-9-15,54.3,49.7,38.8,51.4,45.8,34.9,90,86,80,29.89,29.57,10,0,10,0.14
2013-9-16,61.7,45.0,30.2,46.3,38.0,27.1,91,77,56,30.01,29.89,7,0,7,0.00
2013-9-17,64.2,49.6,32.3,50.3,41.8,28.2,89,75,59,29.93,29.68,10,0,10,0.00
2013-9-18,62.4,57.3,53.4,60.0,54.1,47.4,92,89,80,29.67,29.47,6,0,6,0.06
2013-9-19,74.8,66.1,60.9,70.5,63.1,58.6,94,90,82,29.48,29.32,7,0,7,0.66
2013-9-20,66.7,59.1,47.1,60.8,55.7,43.7,94,89,74,29.42,29.30,10,0,10,0.22
2013-9-21,48.0,44.3,34.3,44.3,40.1,30.6,91,85,76,29.58,29.42,8,0,9,0.02
2013-9-22,58.2,44.8,31.4,46.5,38.6,28.0,91,79,65,29.68,29.58,4,0,5,0.00
2013-9-23,63.6,49.1,36.6,52.8,42.5,32.8,89,79,65,29.72,29.64,7,0,7,0.00
2013-9-24,67.8,52.7,39.0,56.0,46.4,35.5,91,80,63,29.69,29.58,3,0,3,0.00
2013-9-25,67.8,52.5,38.8,55.2,45.5,35.3,90,78,59,29.65,29.58,0,0,1,0.00
2013-9-26,69.6,55.2,-15.4,55.7,47.5,-18.1,90,76,57,29.69,29.62,6,0,6,0.00
2013-9-27,74.4,61.0,48.2,57.8,50.5,43.6,85,70,53,29.72,29.62,12,0,12,0.00
2013-9-28,72.1,59.0,49.8,58.8,50.3,44.0,88,73,61,29.66,29.35,15,1,15,0.32
2013-9-29,66.2,52.9,41.7,50.7,44.3,38.7,91,74,50,29.60,29.50,7,0,9,0.00
2013-9-30,68.7,55.5,44.6,48.9,43.9,39.1,83,67,45,29.56,29.35,16,1,16,0.00
2013-10-1,62.9,56.4,53.9,54.8,47.7,44.7,81,73,66,29.37,29.31,13,2,13,0.00
2013-10-2,68.9,58.5,38.8,45.8,42.3,31.9,81,56,40,29.69,29.59,2,0,6,0.00
2013-10-3,59.7,52.6,44.9,50.7,46.2,40.4,88,79,69,29.64,29.53,7,1,8,0.60
2013-10-4,55.0,51.2,49.6,50.9,48.2,46.7,91,89,84,29.69,29.57,11,2,11,0.20
2013-10-5,53.4,50.8,49.6,51.7,48.9,47.3,94,93,90,29.68,29.32,10,1,11,0.58
2013-10-6,58.8,52.3,48.2,51.7,49.1,43.9,94,89,71,29.33,29.25,5,0,8,0.12
2013-10-7,55.9,47.5,36.6,45.5,39.7,31.6,91,75,58,29.63,29.37,6,0,61,0.00
2013-10-8,69.8,52.7,36.1,51.0,41.8,31.7,87,69,46,29.68,29.58,13,1,17,0.00
2013-10-9,70.8,61.4,50.1,52.0,47.3,41.9,74,60,49,29.73,29.63,10,1,11,0.00
2013-10-10,69.6,54.0,40.1,51.9,43.1,35.4,87,68,46,29.74,29.65,12,0,12,0.00
2013-10-11,69.6,56.6,45.6,56.7,48.1,40.4,86,74,58,29.67,29.50,7,0,9,0.00
2013-10-12,64.4,57.1,46.2,55.4,46.5,37.0,78,68,54,29.64,29.43,12,2,14,0.00
2013-10-13,50.9,44.5,31.8,39.9,37.3,25.4,82,76,64,29.99,29.64,7,0,7,0.00
2013-10-14,54.3,41.8,28.2,41.7,32.8,23.4,87,71,57,30.02,29.78,4,0,4,0.00
2013-10-15,50.1,47.0,43.5,47.6,43.4,37.5,91,87,76,29.78,29.30,6,0,6,0.50
2013-10-16,47.1,41.0,31.1,44.6,38.3,0.0,92,90,89,29.50,29.29,6,0,6,0.08
2013-10-17,52.3,38.2,28.5,43.6,33.8,26.0,92,84,68,29.49,29.33,4,0,4,0.00
2013-10-18,41.5,37.9,29.4,39.1,34.8,26.6,91,89,84,29.48,29.34,6,0,57,0.26
2013-10-19,44.0,34.8,28.4,38.0,30.8,25.9,91,86,72,29.44,29.24,8,0,8,0.08
2013-10-20,40.6,34.0,31.2,36.6,30.8,28.3,90,88,82,29.39,29.24,5,0,5,0.08
2013-10-21,32.5,30.5,28.0,30.2,26.8,22.8,91,86,78,29.38,29.25,8,1,8,0.06
2013-10-22,37.2,32.2,29.6,31.4,27.7,0.0,89,83,75,29.54,29.32,9,1,9,0.04
2013-10-23,35.2,30.8,28.2,29.4,25.8,24.1,85,82,78,29.54,29.48,7,1,8,0.02
2013-10-24,36.1,30.8,26.9,30.4,26.3,0.0,87,83,77,29.78,29.52,6,1,7,0.04
2013-10-25,43.8,33.5,24.0,35.4,26.4,20.4,89,76,62,29.81,29.23,16,3,16,0.00
2013-10-26,45.1,36.6,-15.2,36.6,30.1,-21.6,85,77,70,29.60,29.23,9,1,10,0.04
2013-10-27,49.1,37.3,31.2,34.8,29.2,25.4,84,73,57,29.72,29.37,12,2,13,0.00
2013-10-28,39.0,30.8,25.3,25.4,21.8,19.0,79,70,53,30.02,29.72,11,3,11,0.00
2013-10-29,33.2,31.5,30.7,27.5,25.5,23.3,84,78,69,29.93,29.73,0,0,0,0.00
2013-10-30,46.0,39.2,-21.3,43.8,36.2,-23.5,92,89,84,29.73,29.34,0,0,0,0.12
2013-10-31,50.1,47.6,43.3,48.2,45.5,41.2,93,93,92,29.34,28.83,4,0,6,0.24
2013-11-1,43.1,39.2,35.4,41.2,37.0,33.0,93,92,89,29.33,28.84,7,0,7,0.04
2013-11-2,39.0,34.6,30.7,35.5,31.9,28.4,92,90,86,29.71,29.33,1,0,5,0.00
2013-11-3,40.8,34.5,27.6,36.3,30.8,0.0,92,86,79,29.82,29.71,7,0,7,0.00
2013-11-4,45.5,41.3,37.9,39.6,36.8,33.5,91,84,74,29.73,29.54,18,1,18,0.08
2013-11-5,44.7,37.0,29.1,37.5,32.3,26.0,91,83,71,29.81,29.53,6,0,7,0.14
2013-11-6,32.5,30.3,26.7,30.2,27.4,22.5,91,89,84,29.65,29.42,0,0,4,0.08
2013-11-7,31.1,27.3,23.1,26.5,22.8,19.3,87,83,79,29.71,29.63,0,0,0,0.00
2013-11-8,34.3,28.1,19.7,29.4,23.6,15.4,88,83,79,29.77,29.33,0,0,3,0.00
2013-11-9,35.2,33.3,31.6,33.1,30.4,28.2,92,89,85,29.52,29.20,10,1,12,0.16
2013-11-10,36.1,33.1,30.7,29.7,26.5,0.0,87,77,39,29.80,29.51,12,1,12,0.00
2013-11-11,31.2,22.6,18.3,27.4,16.7,12.5,87,78,68,30.07,29.57,13,2,13,0.00
2013-11-12,27.3,18.9,12.0,14.0,10.6,6.8,81,70,56,30.16,29.94,6,0,14,0.00
2013-11-13,43.5,29.2,15.9,29.7,19.8,0.0,75,67,57,29.94,29.42,18,4,18,0.00
2013-11-14,36.1,32.1,28.9,28.3,25.5,22.6,84,76,73,29.44,29.36,9,2,9,0.00
2013-11-15,49.2,35.1,25.7,39.1,29.5,22.1,90,80,67,29.45,29.37,8,0,8,0.00
2013-11-16,50.1,39.9,33.9,47.9,36.0,28.7,92,86,80,29.39,28.95,6,0,8,0.48
2013-11-17,50.0,40.6,32.1,48.1,38.0,28.7,93,91,86,29.08,28.82,13,1,13,0.08
2013-11-18,32.1,26.4,24.0,28.7,16.4,0.0,87,62,74,29.76,29.08,11,2,13,0.00
2013-11-19,34.3,25.8,14.1,24.2,16.7,0.0,83,68,63,29.86,29.70,6,0,6,0.00
2013-11-20,35.2,31.8,29.8,26.7,24.6,0.0,85,75,67,29.70,29.63,8,1,10,0.00
2013-11-21,32.1,30.3,24.4,29.5,27.2,0.0,90,88,85,29.90,29.64,9,0,61,0.00
2013-11-22,28.7,22.3,14.1,21.1,16.6,0.0,87,79,66,30.00,29.87,9,1,10,0.04
2013-11-23,13.8,8.7,5.5,7.7,1.8,-1.5,78,73,67,30.15,29.93,61,2,61,0.00
2013-11-24,19.9,10.5,-1.4,10.1,2.7,-6.8,80,70,62,30.11,29.51,16,2,16,0.00
2013-11-25,30.7,26.6,19.9,24.0,19.6,10.1,78,74,65,29.51,29.37,16,4,16,0.00
2013-11-26,28.9,15.6,5.5,22.7,9.1,-0.1,81,75,68,29.73,29.45,9,1,9,0.00
2013-11-27,21.3,14.4,5.9,13.7,7.7,0.5,83,75,64,29.78,29.69,6,0,8,0.00
2013-11-28,21.9,15.6,5.5,16.5,10.0,0.4,81,78,75,29.98,29.65,4,0,7,0.00
2013-11-29,22.4,17.0,3.9,17.6,12.0,-9.3,85,80,27,30.07,29.80,6,1,7,0.00
2013-11-30,33.6,27.4,21.9,25.9,20.9,16.1,79,76,72,29.80,29.56,9,1,9,0.02
2013-12-1,30.7,28.1,26.7,25.4,22.4,20.4,84,79,74,29.70,29.52,4,0,4,0.00
2013-12-2,31.8,28.3,25.8,24.8,22.2,20.2,83,78,74,29.53,29.37,6,0,6,0.00
2013-12-3,28.7,25.5,21.7,25.1,22.1,18.4,88,87,83,29.46,29.35,6,0,6,0.00
2013-12-4,31.8,27.0,21.9,29.5,24.4,18.6,92,90,87,29.45,28.93,0,0,0,0.00
2013-12-5,31.1,11.9,1.5,29.0,8.1,-3.0,92,84,81,29.67,28.99,0,0,0,0.00
2013-12-6,5.9,-0.0,-7.7,0.8,-4.7,-12.0,82,80,78,29.96,29.67,0,0,0,0.00
2013-12-7,3.3,-5.2,-20.6,-2.0,-10.2,-24.8,81,78,76,30.08,29.96,6,0,6,0.00
2013-12-8,9.1,-0.1,-12.1,4.2,-4.9,-17.3,82,80,77,30.02,29.51,3,0,4,0.00
2013-12-9,8.4,0.5,-9.9,3.8,-4.7,-15.1,82,78,75,29.53,29.35,8,1,8,0.00
2013-12-10,5.9,-1.8,-10.6,0.3,-6.9,-15.6,80,78,77,29.63,29.32,7,1,25,0.00
2013-12-11,-1.4,-7.0,-11.0,-7.4,-12.3,-15.9,79,77,74,29.88,29.63,7,0,7,0.00
2013-12-12,9.1,0.7,-10.8,3.4,-4.6,-16.0,80,78,76,29.81,29.61,6,1,6,0.00
2013-12-13,7.5,4.2,0.1,2.6,-1.6,-5.5,81,77,72,29.86,29.65,8,2,8,0.00
2013-12-14,13.8,8.4,0.1,8.5,3.4,-5.4,82,79,77,29.85,29.38,6,1,10,0.00
2013-12-15,12.0,0.6,-14.0,7.6,-4.9,-20.0,82,77,73,29.61,29.38,8,0,8,0.00
2013-12-16,10.5,-1.5,-21.6,4.2,-6.7,-27.0,82,78,75,29.62,29.41,7,1,8,0.00
2013-12-17,22.6,14.7,6.9,19.0,10.7,2.6,87,84,80,29.52,29.32,7,0,7,0.00
2013-12-18,22.2,9.5,-2.0,14.6,4.0,-6.9,81,78,71,29.54,29.24,6,0,6,0.00
2013-12-19,19.2,13.1,4.8,15.4,8.2,-0.3,85,80,78,29.63,29.28,10,2,10,0.00
2013-12-20,17.4,13.7,5.0,13.1,9.5,0.7,85,83,81,29.59,29.39,7,1,7,0.00
2013-12-21,22.8,18.7,15.6,18.5,14.8,11.9,86,84,82,29.56,29.39,6,1,6,0.00
2013-12-22,21.7,18.6,15.0,17.1,14.0,10.8,84,82,79,29.65,29.43,9,2,11,0.00
2013-12-23,14.9,8.8,-7.4,10.8,4.1,-12.4,84,81,78,29.90,29.65,6,0,7,0.00
2013-12-24,15.0,3.1,-9.5,8.8,-2.3,-14.5,83,77,72,29.95,29.69,5,0,8,0.00
2013-12-25,14.1,9.7,5.9,9.1,5.0,0.0,83,81,79,29.69,29.52,0,0,0,0.00
2013-12-26,11.3,7.3,0.3,6.1,2.7,-4.1,83,81,79,29.71,29.53,0,0,0,0.00
2013-12-27,27.5,20.0,10.9,24.2,16.5,6.5,88,86,82,29.71,29.38,8,1,9,0.00
2013-12-28,32.3,28.4,23.3,29.4,25.3,-1.5,90,88,27,29.52,29.31,11,0,11,0.04
2013-12-29,22.8,4.0,-14.4,19.8,-0.8,-19.7,88,80,74,29.68,29.37,13,2,15,0.00
2013-12-30,-3.1,-12.0,-21.8,0.0,-17.0,-27.0,79,74,73,29.74,29.62,3,0,4,0.00
2013-12-31,-2.7,-13.4,-20.7,-8.9,-19.2,-26.3,78,74,72,29.86,29.60,6,0,6,0.00
2014-1-1,1.5,-6.1,-19.1,0.0,-11.8,-24.8,78,75,73,29.95,29.84,8,0,8,0.00
2014-1-2,3.9,-6.4,-17.8,-3.0,-12.6,-23.4,79,74,70,29.90,29.83,9,0,9,0.00